createdAt,value
2023-04-18T00:03:22.555Z,101989.91
2023-04-18T00:08:27.916Z,101987.45
2023-04-18T00:13:32.095Z,101984.36
2023-04-18T00:18:36.358Z,101985.92
2023-04-18T00:23:40.024Z,101981.26
2023-04-18T00:28:43.970Z,101980.01
2023-04-18T00:33:47.530Z,101985.84
2023-04-18T00:38:52.489Z,101987.98
2023-04-18T00:43:56.612Z,101982.05
2023-04-18T00:49:00.968Z,101978.61
2023-04-18T00:54:06.520Z,101980.55
2023-04-18T00:59:11.374Z,101977.86
2023-04-18T01:04:16.584Z,101975.92
2023-04-18T01:09:21.267Z,101976.05
2023-04-18T01:14:25.269Z,101977.33
2023-04-18T01:19:29.100Z,101978.30
2023-04-18T01:24:32.969Z,101977.02
2023-04-18T01:29:38.883Z,101978.02
2023-04-18T01:34:42.824Z,101979.63
2023-04-18T01:39:47.564Z,101982.94
2023-04-18T01:44:51.309Z,101979.64
2023-04-18T01:49:55.509Z,101981.31
2023-04-18T01:55:01.620Z,101979.33
2023-04-18T02:00:08.090Z,101980.97
2023-04-18T02:05:21.132Z,101979.55
2023-04-18T02:10:25.308Z,101981.48
2023-04-18T02:15:29.252Z,101977.35
2023-04-18T02:20:33.397Z,101982.52
2023-04-18T02:25:38.301Z,101979.63
2023-04-18T02:30:42.781Z,101976.50
2023-04-18T02:35:46.517Z,101975.15
2023-04-18T02:40:50.779Z,101967.70
2023-04-18T02:45:54.419Z,101970.36
2023-04-18T02:51:03.465Z,101974.74
2023-04-18T02:56:09.039Z,101978.13
2023-04-18T03:01:35.525Z,101979.69
2023-04-18T03:06:49.561Z,101978.84
2023-04-18T03:11:55.501Z,101976.95
2023-04-18T03:17:03.762Z,101977.54
2023-04-18T03:22:12.809Z,101977.43
2023-04-18T03:27:21.714Z,101976.90
2023-04-18T03:32:26.826Z,101974.77
2023-04-18T03:37:30.577Z,101978.90
2023-04-18T03:42:35.656Z,101980.87
2023-04-18T03:47:39.887Z,101984.95
2023-04-18T03:52:43.780Z,101987.33
2023-04-18T03:57:48.574Z,101984.25
2023-04-18T04:03:00.366Z,101980.30
2023-04-18T04:08:07.347Z,101980.17
2023-04-18T04:13:11.278Z,101981.98
2023-04-18T04:18:15.706Z,101985.67
2023-04-18T04:23:20.246Z,101990.70
2023-04-18T04:28:25.724Z,101995.63
2023-04-18T04:33:35.224Z,101999.42
2023-04-18T04:38:41.440Z,102001.90
2023-04-18T04:43:46.065Z,102005.31
2023-04-18T04:48:52.631Z,102008.27
2023-04-18T04:53:56.255Z,102013.37
2023-04-18T04:59:00.422Z,102017.73
2023-04-18T05:04:12.876Z,102021.10
2023-04-18T05:09:17.012Z,102022.22
2023-04-18T05:14:20.714Z,102022.01
2023-04-18T05:19:24.805Z,102021.70
2023-04-18T05:24:28.368Z,102020.41
2023-04-18T05:29:32.285Z,102014.96
2023-04-18T05:34:38.584Z,102014.81
2023-04-18T05:39:42.893Z,102012.67
2023-04-18T05:44:46.525Z,102017.71
2023-04-18T05:49:50.268Z,102015.29
2023-04-18T05:54:53.935Z,102013.08
2023-04-18T05:59:57.574Z,102012.79
2023-04-18T06:05:01.525Z,102015.71
2023-04-18T06:10:12.759Z,102014.98
2023-04-18T06:15:16.523Z,102012.43
2023-04-18T06:20:20.338Z,102016.75
2023-04-18T06:25:25.582Z,102021.19
2023-04-18T06:30:29.297Z,102019.41
2023-04-18T06:35:34.872Z,102020.66
2023-04-18T06:40:38.786Z,102018.27
2023-04-18T06:45:42.889Z,102019.94
2023-04-18T06:50:46.960Z,102026.50
2023-04-18T06:55:50.964Z,102033.42
2023-04-18T07:00:54.675Z,102038.16
2023-04-18T07:05:58.977Z,102041.05
2023-04-18T07:11:02.709Z,102047.29
2023-04-18T07:16:09.281Z,102052.38
2023-04-18T07:21:12.951Z,102052.53
2023-04-18T07:26:16.730Z,102057.16
2023-04-18T07:31:20.513Z,102062.27
2023-04-18T07:36:25.358Z,102066.76
2023-04-18T07:41:29.084Z,102069.02
2023-04-18T07:46:33.429Z,102073.02
2023-04-18T07:51:37.266Z,102079.14
2023-04-18T07:56:40.958Z,102079.91
2023-04-18T08:01:44.727Z,102082.45
2023-04-18T08:06:59.742Z,102088.95
2023-04-18T08:12:03.653Z,102090.49
2023-04-18T08:17:07.414Z,102087.86
2023-04-18T08:22:11.660Z,102084.96
2023-04-18T08:27:15.271Z,102085.26
2023-04-18T08:32:18.970Z,102085.69
2023-04-18T08:37:22.645Z,102086.38
2023-04-18T08:42:27.127Z,102080.31
2023-04-18T08:47:31.266Z,102084.30
2023-04-18T08:52:37.302Z,102087.20
2023-04-18T08:57:41.508Z,102088.22
2023-04-18T09:02:46.485Z,102080.04
2023-04-18T09:07:52.433Z,102075.64
2023-04-18T09:12:57.508Z,102086.04
2023-04-18T09:18:02.230Z,102079.54
2023-04-18T09:23:09.890Z,102080.93
2023-04-18T09:28:24.433Z,102081.41
2023-04-18T09:33:31.984Z,102080.85
2023-04-18T09:38:42.037Z,102075.69
2023-04-18T09:43:47.351Z,102071.75
2023-04-18T09:48:51.659Z,102077.79
2023-04-18T09:53:56.087Z,102078.19
2023-04-18T09:59:07.710Z,102073.30
2023-04-18T10:04:13.459Z,102073.63
2023-04-18T10:09:21.233Z,102070.36
2023-04-18T10:14:27.395Z,102066.32
2023-04-18T10:19:32.165Z,102065.40
2023-04-18T10:24:52.336Z,102062.71
2023-04-18T10:29:56.225Z,102059.92
2023-04-18T10:35:00.197Z,102056.06
2023-04-18T10:40:06.980Z,102049.87
2023-04-18T10:45:22.960Z,102047.65
2023-04-18T10:50:26.682Z,102045.04
2023-04-18T10:55:31.604Z,102044.04
2023-04-18T11:00:36.673Z,102038.75
2023-04-18T11:05:40.491Z,102034.77
2023-04-18T11:10:57.754Z,102030.74
2023-04-18T11:16:01.678Z,102030.43
2023-04-18T11:21:06.022Z,102024.40
2023-04-18T11:26:11.335Z,102029.04
2023-04-18T11:31:16.573Z,102020.38
2023-04-18T11:36:20.292Z,102016.44
2023-04-18T11:41:24.017Z,102006.50
2023-04-18T11:46:38.777Z,102009.13
2023-04-18T11:51:45.721Z,102006.77
2023-04-18T11:56:50.405Z,102007.41
2023-04-18T12:02:14.840Z,102004.34
2023-04-18T12:07:35.483Z,101991.70
2023-04-18T12:12:48.746Z,101992.81
2023-04-18T12:17:52.831Z,101987.10
2023-04-18T12:22:57.184Z,101980.21
2023-04-18T12:28:03.639Z,101978.59
2023-04-18T12:33:08.848Z,101972.67
2023-04-18T12:38:13.122Z,101967.05
2023-04-18T12:43:16.897Z,101961.03
2023-04-18T12:48:20.562Z,101960.00
2023-04-18T12:53:24.336Z,101952.88
2023-04-18T12:58:28.143Z,101951.40
2023-04-18T13:03:40.310Z,101952.90
2023-04-18T13:08:47.175Z,101945.52
2023-04-18T13:13:51.921Z,101935.95
2023-04-18T13:18:56.970Z,101935.45
2023-04-18T13:24:00.802Z,101934.13
2023-04-18T13:29:04.693Z,101932.65
2023-04-18T13:34:08.249Z,101920.66
2023-04-18T13:39:11.974Z,101921.81
2023-04-18T13:44:17.071Z,101920.61
2023-04-18T13:49:20.812Z,101910.23
2023-04-18T13:54:26.024Z,101907.12
2023-04-18T13:59:31.862Z,101910.12
2023-04-18T14:04:35.870Z,101908.28
2023-04-18T14:09:39.577Z,101904.41
2023-04-18T14:14:43.373Z,101898.41
2023-04-18T14:19:48.909Z,101900.29
2023-04-18T14:24:53.931Z,101901.69
2023-04-18T14:29:59.229Z,101906.21
2023-04-18T14:35:17.040Z,101907.15
2023-04-18T14:40:23.976Z,101903.38
2023-04-18T14:45:28.164Z,101904.23
2023-04-18T14:50:32.288Z,101901.61
2023-04-18T14:55:37.050Z,101900.52
2023-04-18T15:00:41.462Z,101904.64
2023-04-18T15:05:47.809Z,101903.23
2023-04-18T15:10:51.501Z,101896.40
2023-04-18T15:15:56.434Z,101901.73
2023-04-18T15:21:00.712Z,101905.98
2023-04-18T15:26:04.844Z,101904.77
2023-04-18T15:31:09.174Z,101912.62
2023-04-18T15:36:15.260Z,101916.63
2023-04-18T15:41:19.341Z,101917.55
2023-04-18T15:46:24.387Z,101916.69
2023-04-18T15:51:29.761Z,101917.23
2023-04-18T15:56:36.149Z,101920.11
2023-04-18T16:01:40.194Z,101920.24
2023-04-18T16:06:43.923Z,101923.25
2023-04-18T16:11:47.940Z,101926.95
2023-04-18T16:16:53.502Z,101928.52
2023-04-18T16:22:00.417Z,101931.30
2023-04-18T16:27:04.581Z,101932.30
2023-04-18T16:32:08.563Z,101934.98
2023-04-18T16:37:14.743Z,101942.19
2023-04-18T16:42:19.838Z,101946.88
2023-04-18T16:47:23.960Z,101951.76
2023-04-18T16:52:27.894Z,101950.08
2023-04-18T16:57:31.701Z,101948.79
2023-04-18T17:02:35.570Z,101952.53
2023-04-18T17:07:39.642Z,101953.38
2023-04-18T17:12:45.241Z,101958.99
2023-04-18T17:17:55.462Z,101962.71
2023-04-18T17:22:59.389Z,101959.15
2023-04-18T17:28:03.307Z,101963.45
2023-04-18T17:33:07.362Z,101972.05
2023-04-18T17:38:12.114Z,101966.66
2023-04-18T17:43:15.911Z,101967.40
2023-04-18T17:48:21.382Z,101968.39
2023-04-18T17:53:27.395Z,101966.88
2023-04-18T17:58:31.604Z,101972.09
2023-04-18T18:03:42.984Z,101973.44
2023-04-18T18:08:47.295Z,101975.06
2023-04-18T18:13:57.022Z,101980.20
2023-04-18T18:19:06.662Z,101978.02
2023-04-18T18:24:15.234Z,101977.52
2023-04-18T18:29:22.317Z,101977.70
2023-04-18T18:34:29.448Z,101981.78
2023-04-18T18:39:33.716Z,101979.02
2023-04-18T18:44:37.468Z,101981.27
2023-04-18T18:49:41.524Z,101977.51
2023-04-18T18:54:45.524Z,101971.81
2023-04-18T18:59:50.006Z,101968.64
2023-04-18T19:04:56.231Z,101965.27
2023-04-18T19:10:01.682Z,101962.60
2023-04-18T19:15:07.242Z,101958.94
2023-04-18T19:20:14.074Z,101957.48
2023-04-18T19:25:17.847Z,101956.20
2023-04-18T19:30:21.723Z,101957.11
2023-04-18T19:35:26.995Z,101950.86
2023-04-18T19:40:31.095Z,101953.71
2023-04-18T19:45:39.261Z,101947.14
2023-04-18T19:50:44.193Z,101943.47
2023-04-18T19:55:47.942Z,101941.64
2023-04-18T20:00:51.956Z,101941.59
2023-04-18T20:05:55.831Z,101945.36
2023-04-18T20:10:59.592Z,101941.78
2023-04-18T20:16:04.006Z,101942.04
2023-04-18T20:21:10.202Z,101941.37
2023-04-18T20:26:13.795Z,101939.27
2023-04-18T20:31:19.248Z,101938.88
2023-04-18T20:36:23.864Z,101931.96
2023-04-18T20:41:30.681Z,101929.61
2023-04-18T20:46:34.472Z,101930.04
2023-04-18T20:51:38.412Z,101926.54
2023-04-18T20:56:42.071Z,101923.05
2023-04-18T21:01:46.365Z,101921.67
2023-04-18T21:06:50.176Z,101919.21
2023-04-18T21:11:53.813Z,101914.20
2023-04-18T21:16:58.069Z,101909.36
2023-04-18T21:22:04.773Z,101904.44
2023-04-18T21:27:09.916Z,101903.35
2023-04-18T21:32:18.298Z,101901.97
2023-04-18T21:37:22.252Z,101899.42
2023-04-18T21:42:26.318Z,101900.73
2023-04-18T21:47:31.750Z,101893.35
2023-04-18T21:52:35.732Z,101897.78
2023-04-18T21:57:39.413Z,101895.14
2023-04-18T22:02:43.644Z,101891.15
2023-04-18T22:07:57.543Z,101886.27
2023-04-18T22:13:04.299Z,101879.56
2023-04-18T22:18:08.562Z,101875.67
2023-04-18T22:23:12.364Z,101875.39
2023-04-18T22:28:15.964Z,101865.84
2023-04-18T22:33:19.778Z,101861.70
2023-04-18T22:38:24.710Z,101858.73
2023-04-18T22:43:33.498Z,101855.52
2023-04-18T22:48:37.891Z,101843.55
2023-04-18T22:53:41.484Z,101835.92
2023-04-18T22:58:45.126Z,101832.94
2023-04-18T23:03:48.825Z,101831.78
2023-04-18T23:08:52.780Z,101827.98
2023-04-18T23:13:56.407Z,101824.77
2023-04-18T23:19:00.061Z,101815.70
2023-04-18T23:24:03.821Z,101806.86
2023-04-18T23:29:07.665Z,101796.75
2023-04-18T23:34:11.238Z,101787.56
2023-04-18T23:39:16.931Z,101784.80
2023-04-18T23:44:23.102Z,101780.09
2023-04-18T23:49:27.938Z,101776.16
2023-04-18T23:54:31.598Z,101774.10
2023-04-18T23:59:35.250Z,101761.73
